createdAt,value
2019-04-30T00:00:45.271Z,102210.31
2019-04-30T00:03:25.029Z,102213.73
2019-04-30T00:05:57.324Z,102219.26
2019-04-30T00:08:30.172Z,102218.86
2019-04-30T00:10:57.409Z,102218.86
2019-04-30T00:13:26.978Z,102220.59
2019-04-30T00:15:58.723Z,102221.47
2019-04-30T00:18:30.785Z,102222.31
2019-04-30T00:21:00.207Z,102225.09
2019-04-30T00:23:30.963Z,102226.57
2019-04-30T00:26:08.188Z,102220.94
2019-04-30T00:28:35.399Z,102221.84
2019-04-30T00:31:05.497Z,102222.02
2019-04-30T00:33:36.083Z,102222.21
2019-04-30T00:36:06.100Z,102218.67
2019-04-30T00:38:39.108Z,102221.02
2019-04-30T00:41:11.519Z,102223.73
2019-04-30T00:43:49.664Z,102224.68
2019-04-30T00:46:17.291Z,102227.91
2019-04-30T00:48:46.766Z,102226.77
2019-04-30T00:51:21.416Z,102222.06
2019-04-30T00:53:52.489Z,102216.83
2019-04-30T00:56:24.746Z,102214.27
2019-04-30T00:58:57.425Z,102212.49
2019-04-30T01:01:50.788Z,102214.95
2019-04-30T01:04:28.312Z,102209.58
2019-04-30T01:07:04.572Z,102207.16
2019-04-30T01:09:31.857Z,102198.48
2019-04-30T01:12:01.356Z,102191.55
2019-04-30T01:14:32.225Z,102187.19
2019-04-30T01:17:03.882Z,102187.95
2019-04-30T01:19:33.306Z,102187.13
2019-04-30T01:22:02.984Z,102186.25
2019-04-30T01:24:34.308Z,102187.75
2019-04-30T01:27:06.685Z,102185.54
2019-04-30T01:29:41.458Z,102183.83
2019-04-30T01:32:10.452Z,102186.16
2019-04-30T01:34:44.365Z,102186.72
2019-04-30T01:37:11.579Z,102192.11
2019-04-30T01:39:42.788Z,102195.25
2019-04-30T01:42:14.842Z,102199.80
2019-04-30T01:44:50.384Z,102197.66
2019-04-30T01:47:16.439Z,102184.92
2019-04-30T01:49:45.822Z,102179.77
2019-04-30T01:52:16.776Z,102180.65
2019-04-30T01:54:46.183Z,102184.31
2019-04-30T01:57:39.042Z,102184.39
2019-04-30T02:00:19.582Z,102183.99
2019-04-30T02:02:49.643Z,102188.93
2019-04-30T02:05:19.160Z,102190.26
2019-04-30T02:07:48.779Z,102193.85
2019-04-30T02:10:19.526Z,102190.81
2019-04-30T02:12:50.917Z,102191.09
2019-04-30T02:15:20.425Z,102190.92
2019-04-30T02:17:50.521Z,102186.05
2019-04-30T02:20:20.226Z,102184.83
2019-04-30T02:22:50.799Z,102180.36
2019-04-30T02:25:22.766Z,102187.00
2019-04-30T02:27:53.539Z,102184.95
2019-04-30T02:30:25.836Z,102184.22
2019-04-30T02:33:00.632Z,102176.70
2019-04-30T02:35:52.282Z,102180.06
2019-04-30T02:38:30.268Z,102181.97
2019-04-30T02:41:02.766Z,102177.98
2019-04-30T02:43:33.888Z,102183.80
2019-04-30T02:46:05.914Z,102187.48
2019-04-30T02:48:39.872Z,102183.52
2019-04-30T02:51:12.093Z,102185.88
2019-04-30T02:54:29.682Z,102185.00
2019-04-30T02:57:25.616Z,102183.02
2019-04-30T03:00:05.940Z,102177.86
2019-04-30T03:02:35.776Z,102167.23
2019-04-30T03:05:10.213Z,102169.94
2019-04-30T03:07:41.068Z,102170.44
2019-04-30T03:10:13.135Z,102168.63
2019-04-30T03:12:42.801Z,102170.88
2019-04-30T03:15:12.514Z,102162.91
2019-04-30T03:18:13.468Z,102163.69
2019-04-30T03:20:54.379Z,102154.44
2019-04-30T03:23:24.032Z,102157.50
2019-04-30T03:25:54.612Z,102158.27
2019-04-30T03:28:24.393Z,102153.44
2019-04-30T03:30:57.536Z,102150.28
2019-04-30T03:33:32.202Z,102154.67
2019-04-30T03:36:02.849Z,102155.22
2019-04-30T03:38:32.594Z,102152.01
2019-04-30T03:41:03.296Z,102154.29
2019-04-30T03:43:35.891Z,102153.94
2019-04-30T03:46:10.096Z,102148.58
2019-04-30T03:48:43.019Z,102149.85
2019-04-30T03:51:15.671Z,102152.01
2019-04-30T03:53:46.187Z,102150.68
2019-04-30T03:56:20.008Z,102151.00
2019-04-30T03:58:50.314Z,102152.89
2019-04-30T04:01:29.479Z,102153.39
2019-04-30T04:04:22.615Z,102158.20
2019-04-30T04:07:20.515Z,102153.77
2019-04-30T04:09:59.790Z,102157.70
2019-04-30T04:12:31.336Z,102161.64
2019-04-30T04:15:04.005Z,102166.84
2019-04-30T04:17:33.041Z,102169.18
2019-04-30T04:20:04.840Z,102163.29
2019-04-30T04:22:35.422Z,102165.95
2019-04-30T04:25:05.168Z,102167.67
2019-04-30T04:27:34.962Z,102164.19
2019-04-30T04:30:05.947Z,102163.69
2019-04-30T04:32:35.464Z,102163.23
2019-04-30T04:35:06.641Z,102162.02
2019-04-30T04:37:39.476Z,102161.98
2019-04-30T04:40:11.288Z,102158.83
2019-04-30T04:42:40.843Z,102161.98
2019-04-30T04:45:11.502Z,102155.55
2019-04-30T04:47:41.026Z,102160.03
2019-04-30T04:50:13.533Z,102160.42
2019-04-30T04:52:43.019Z,102164.08
2019-04-30T04:55:14.218Z,102166.80
2019-04-30T04:57:43.843Z,102169.83
2019-04-30T05:00:14.846Z,102168.50
2019-04-30T05:03:09.438Z,102173.95
2019-04-30T05:05:39.894Z,102174.25
2019-04-30T05:08:10.987Z,102170.16
2019-04-30T05:10:41.701Z,102173.42
2019-04-30T05:13:13.651Z,102171.71
2019-04-30T05:15:44.145Z,102168.66
2019-04-30T05:18:14.576Z,102174.54
2019-04-30T05:20:43.978Z,102179.23
2019-04-30T05:23:15.241Z,102180.05
2019-04-30T05:25:45.912Z,102175.88
2019-04-30T05:28:15.566Z,102179.50
2019-04-30T05:30:46.981Z,102176.09
2019-04-30T05:33:18.515Z,102177.62
2019-04-30T05:35:49.610Z,102179.22
2019-04-30T05:38:21.045Z,102182.40
2019-04-30T05:40:50.720Z,102180.70
2019-04-30T05:43:20.322Z,102177.27
2019-04-30T05:45:49.874Z,102179.98
2019-04-30T05:48:19.583Z,102185.05
2019-04-30T05:50:51.798Z,102183.34
2019-04-30T05:53:21.084Z,102176.52
2019-04-30T05:55:50.568Z,102179.30
2019-04-30T05:58:20.026Z,102177.88
2019-04-30T06:00:49.898Z,102176.30
2019-04-30T06:03:28.100Z,102174.97
2019-04-30T06:05:54.235Z,102168.91
2019-04-30T06:08:26.813Z,102174.63
2019-04-30T06:11:03.403Z,102172.55
2019-04-30T06:13:58.900Z,102169.57
2019-04-30T06:16:29.855Z,102170.23
2019-04-30T06:18:59.657Z,102166.70
2019-04-30T06:21:29.551Z,102164.25
2019-04-30T06:23:59.377Z,102165.93
2019-04-30T06:26:29.612Z,102168.84
2019-04-30T06:28:59.366Z,102166.09
2019-04-30T06:31:34.284Z,102174.16
2019-04-30T06:34:02.620Z,102166.09
2019-04-30T06:36:32.530Z,102168.30
2019-04-30T06:39:02.253Z,102164.38
2019-04-30T06:41:33.159Z,102159.77
2019-04-30T06:44:05.173Z,102161.02
2019-04-30T06:46:34.783Z,102154.34
2019-04-30T06:49:05.413Z,102156.28
2019-04-30T06:51:34.987Z,102153.00
2019-04-30T06:54:05.572Z,102145.53
2019-04-30T06:56:38.713Z,102137.09
2019-04-30T06:59:09.303Z,102131.70
2019-04-30T07:01:40.004Z,102134.89
2019-04-30T07:04:10.563Z,102119.38
2019-04-30T07:06:45.089Z,102125.48
2019-04-30T07:09:51.487Z,102122.83
2019-04-30T07:12:27.778Z,102119.51
2019-04-30T07:14:59.073Z,102122.41
2019-04-30T07:17:29.634Z,102121.48
2019-04-30T07:19:59.671Z,102117.92
2019-04-30T07:22:40.205Z,102108.25
2019-04-30T07:25:05.061Z,102105.51
2019-04-30T07:27:34.712Z,102103.59
2019-04-30T07:30:04.344Z,102100.73
2019-04-30T07:32:38.705Z,102099.09
2019-04-30T07:35:09.765Z,102096.49
2019-04-30T07:37:39.433Z,102102.08
2019-04-30T07:40:09.645Z,102099.59
2019-04-30T07:42:44.732Z,102103.31
2019-04-30T07:45:10.550Z,102097.41
2019-04-30T07:47:40.464Z,102099.09
2019-04-30T07:50:12.266Z,102097.38
2019-04-30T07:53:01.099Z,102097.45
2019-04-30T07:55:19.437Z,102090.86
2019-04-30T07:57:50.856Z,102089.30
2019-04-30T08:00:20.532Z,102082.84
2019-04-30T08:02:59.837Z,102090.03
2019-04-30T08:05:40.148Z,102088.59
2019-04-30T08:08:20.974Z,102092.46
2019-04-30T08:10:41.820Z,102089.50
2019-04-30T08:13:14.877Z,102088.92
2019-04-30T08:15:44.374Z,102089.41
2019-04-30T08:18:13.863Z,102081.48
2019-04-30T08:20:43.472Z,102077.37
2019-04-30T08:23:30.559Z,102087.50
2019-04-30T08:25:46.177Z,102079.42
2019-04-30T08:28:15.765Z,102088.47
2019-04-30T08:30:48.879Z,102082.68
2019-04-30T08:33:20.027Z,102086.80
2019-04-30T08:35:50.463Z,102088.02
2019-04-30T08:38:20.297Z,102093.66
2019-04-30T08:40:56.209Z,102093.14
2019-04-30T08:43:23.000Z,102087.99
2019-04-30T08:45:52.511Z,102092.38
2019-04-30T08:48:22.095Z,102091.89
2019-04-30T08:50:53.541Z,102088.78
2019-04-30T08:53:29.334Z,102087.84
2019-04-30T08:55:55.854Z,102084.89
2019-04-30T08:58:25.603Z,102083.95
2019-04-30T09:00:58.761Z,102079.60
2019-04-30T09:03:29.616Z,102084.36
2019-04-30T09:06:09.340Z,102078.72
2019-04-30T09:08:40.278Z,102079.89
2019-04-30T09:11:21.845Z,102082.33
2019-04-30T09:13:43.314Z,102072.00
2019-04-30T09:16:13.949Z,102072.89
2019-04-30T09:18:43.519Z,102076.30
2019-04-30T09:21:13.112Z,102071.29
2019-04-30T09:23:49.897Z,102076.03
2019-04-30T09:26:16.261Z,102073.67
2019-04-30T09:28:46.999Z,102071.31
2019-04-30T09:31:16.796Z,102065.31
2019-04-30T09:33:49.175Z,102068.77
2019-04-30T09:36:20.860Z,102064.30
2019-04-30T09:38:51.979Z,102056.12
2019-04-30T09:41:21.577Z,102060.81
2019-04-30T09:43:52.490Z,102062.20
2019-04-30T09:46:26.696Z,102055.52
2019-04-30T09:48:54.299Z,102057.83
2019-04-30T09:51:26.444Z,102051.09
2019-04-30T09:54:00.527Z,102055.33
2019-04-30T09:56:30.850Z,102054.68
2019-04-30T09:59:00.335Z,102046.13
2019-04-30T10:01:32.515Z,102055.88
2019-04-30T10:04:01.490Z,102055.07
2019-04-30T10:06:39.788Z,102050.41
2019-04-30T10:09:05.249Z,102046.48
2019-04-30T10:11:50.090Z,102045.71
2019-04-30T10:14:20.811Z,102048.83
2019-04-30T10:17:09.522Z,102046.13
2019-04-30T10:19:40.155Z,102035.44
2019-04-30T10:22:09.574Z,102037.69
2019-04-30T10:24:40.627Z,102035.45
2019-04-30T10:27:13.072Z,102031.58
2019-04-30T10:29:42.070Z,102028.61
2019-04-30T10:32:12.935Z,102026.08
2019-04-30T10:34:42.560Z,102022.05
2019-04-30T10:37:12.009Z,102022.66
2019-04-30T10:39:42.671Z,102023.77
2019-04-30T10:42:12.331Z,102016.69
2019-04-30T10:44:41.818Z,102015.79
2019-04-30T10:47:11.666Z,102020.84
2019-04-30T10:49:41.356Z,102013.88
2019-04-30T10:52:12.704Z,102011.59
2019-04-30T10:54:42.213Z,102007.89
2019-04-30T10:57:11.893Z,102012.21
2019-04-30T10:59:44.678Z,102014.36
2019-04-30T11:02:14.209Z,102006.84
2019-04-30T11:04:45.008Z,102011.14
2019-04-30T11:07:14.959Z,102014.44
2019-04-30T11:09:44.577Z,102009.43
2019-04-30T11:12:14.354Z,101999.87
2019-04-30T11:14:45.658Z,102002.98
2019-04-30T11:17:15.441Z,101997.52
2019-04-30T11:19:45.430Z,102001.28
2019-04-30T11:22:15.104Z,101995.89
2019-04-30T11:24:58.395Z,101991.28
2019-04-30T11:27:22.934Z,101995.91
2019-04-30T11:30:01.460Z,101986.55
2019-04-30T11:32:27.210Z,101985.51
2019-04-30T11:34:59.985Z,101987.77
2019-04-30T11:37:29.623Z,101982.37
2019-04-30T11:39:59.371Z,101974.55
2019-04-30T11:42:28.925Z,101970.41
2019-04-30T11:45:00.273Z,101967.94
2019-04-30T11:47:33.834Z,101971.87
2019-04-30T11:50:05.543Z,101961.82
2019-04-30T11:53:25.377Z,101968.92
2019-04-30T11:55:51.796Z,101961.89
2019-04-30T11:58:25.616Z,101952.57
2019-04-30T12:01:19.417Z,101954.52
2019-04-30T12:03:59.809Z,101956.36
2019-04-30T12:06:29.787Z,101948.98
2019-04-30T12:09:13.410Z,101948.02
2019-04-30T12:11:45.418Z,101940.79
2019-04-30T12:14:16.082Z,101934.66
2019-04-30T12:16:45.677Z,101937.63
2019-04-30T12:19:15.221Z,101929.80
2019-04-30T12:22:24.536Z,101936.91
2019-04-30T12:25:02.548Z,101932.80
2019-04-30T12:27:25.766Z,101924.99
2019-04-30T12:29:59.431Z,101935.89
2019-04-30T12:32:36.104Z,101932.94
2019-04-30T12:35:05.985Z,101932.69
2019-04-30T12:37:38.964Z,101939.00
2019-04-30T12:40:25.558Z,101921.06
2019-04-30T12:42:41.576Z,101936.91
2019-04-30T12:45:13.045Z,101934.69
2019-04-30T12:47:47.625Z,101924.42
2019-04-30T12:50:30.417Z,101925.61
2019-04-30T12:53:03.575Z,101924.50
2019-04-30T12:55:52.979Z,101923.81
2019-04-30T12:58:23.567Z,101917.94
2019-04-30T13:00:54.160Z,101918.08
2019-04-30T13:03:25.522Z,101918.42
2019-04-30T13:05:56.767Z,101905.94
2019-04-30T13:08:27.224Z,101917.64
2019-04-30T13:10:57.684Z,101915.11
2019-04-30T13:13:31.491Z,101910.50
2019-04-30T13:16:00.036Z,101911.33
2019-04-30T13:18:29.747Z,101901.84
2019-04-30T13:21:03.180Z,101894.47
2019-04-30T13:23:32.833Z,101899.52
2019-04-30T13:26:02.454Z,101895.39
2019-04-30T13:28:47.776Z,101895.92
2019-04-30T13:31:19.364Z,101898.97
2019-04-30T13:33:56.735Z,101894.08
2019-04-30T13:36:26.686Z,101899.78
2019-04-30T13:39:14.480Z,101894.08
2019-04-30T13:41:51.236Z,101891.91
2019-04-30T13:44:30.158Z,101894.76
2019-04-30T13:46:59.593Z,101891.46
2019-04-30T13:49:30.232Z,101890.25
2019-04-30T13:51:59.830Z,101888.66
2019-04-30T13:54:29.486Z,101876.95
2019-04-30T13:56:59.154Z,101887.28
2019-04-30T13:59:28.868Z,101882.07
2019-04-30T14:01:58.863Z,101876.26
2019-04-30T14:04:53.806Z,101885.02
2019-04-30T14:07:49.985Z,101880.53
2019-04-30T14:10:21.403Z,101872.64
2019-04-30T14:12:54.282Z,101878.47
2019-04-30T14:15:24.176Z,101877.75
2019-04-30T14:17:53.994Z,101875.62
2019-04-30T14:20:26.413Z,101873.69
2019-04-30T14:22:57.554Z,101871.06
2019-04-30T14:25:27.370Z,101868.71
2019-04-30T14:27:56.976Z,101867.23
2019-04-30T14:30:29.234Z,101871.51
2019-04-30T14:32:59.502Z,101869.93
2019-04-30T14:35:30.085Z,101868.23
2019-04-30T14:38:01.149Z,101864.75
2019-04-30T14:40:32.419Z,101867.16
2019-04-30T14:43:16.494Z,101870.32
2019-04-30T14:46:10.107Z,101858.95
2019-04-30T14:48:46.419Z,101868.92
2019-04-30T14:51:16.777Z,101864.86
2019-04-30T14:54:11.019Z,101861.14
2019-04-30T14:56:59.556Z,101856.00
2019-04-30T14:59:50.776Z,101864.20
2019-04-30T15:02:42.736Z,101859.89
2019-04-30T15:05:12.352Z,101863.58
2019-04-30T15:07:41.780Z,101860.13
2019-04-30T15:10:12.324Z,101865.52
2019-04-30T15:12:41.847Z,101866.14
2019-04-30T15:15:11.537Z,101863.86
2019-04-30T15:17:41.265Z,101865.06
2019-04-30T15:20:12.221Z,101861.67
2019-04-30T15:22:51.524Z,101866.00
2019-04-30T15:25:20.922Z,101871.72
2019-04-30T15:27:50.345Z,101867.20
2019-04-30T15:30:22.001Z,101869.02
2019-04-30T15:32:57.223Z,101861.20
2019-04-30T15:35:26.867Z,101860.94
2019-04-30T15:37:59.415Z,101860.36
2019-04-30T15:40:30.540Z,101860.70
2019-04-30T15:43:02.452Z,101861.75
2019-04-30T15:45:32.219Z,101856.83
2019-04-30T15:48:01.799Z,101857.83
2019-04-30T15:50:31.386Z,101856.96
2019-04-30T15:53:03.454Z,101856.97
2019-04-30T15:55:32.877Z,101856.96
2019-04-30T15:58:09.698Z,101855.87
2019-04-30T16:00:39.416Z,101855.22
2019-04-30T16:03:15.654Z,101851.17
2019-04-30T16:05:48.072Z,101848.23
2019-04-30T16:08:29.043Z,101843.44
2019-04-30T16:11:29.466Z,101840.25
2019-04-30T16:14:19.303Z,101831.11
2019-04-30T16:16:57.772Z,101840.07
2019-04-30T16:19:29.003Z,101842.59
2019-04-30T16:22:00.232Z,101842.72
2019-04-30T16:24:29.761Z,101842.48
2019-04-30T16:26:59.551Z,101848.14
2019-04-30T16:29:28.881Z,101846.78
2019-04-30T16:31:59.407Z,101846.50
2019-04-30T16:34:30.474Z,101838.84
2019-04-30T16:37:00.131Z,101836.99
2019-04-30T16:39:29.677Z,101839.87
2019-04-30T16:42:00.266Z,101833.25
2019-04-30T16:44:31.269Z,101829.05
2019-04-30T16:47:13.040Z,101827.23
2019-04-30T16:49:33.388Z,101830.80
2019-04-30T16:52:04.797Z,101830.30
2019-04-30T16:54:35.233Z,101835.09
2019-04-30T16:57:06.977Z,101833.23
2019-04-30T16:59:41.048Z,101827.72
2019-04-30T17:02:13.095Z,101835.91
2019-04-30T17:04:50.757Z,101835.72
2019-04-30T17:07:41.640Z,101832.94
2019-04-30T17:10:23.351Z,101836.32
2019-04-30T17:13:10.945Z,101832.41
2019-04-30T17:19:19.096Z,101833.87
2019-04-30T17:21:56.543Z,101830.70
2019-04-30T17:24:27.284Z,101830.75
2019-04-30T17:26:59.287Z,101834.71
2019-04-30T17:29:37.902Z,101828.88
2019-04-30T17:32:16.357Z,101830.18
2019-04-30T17:34:58.768Z,101834.42
2019-04-30T17:37:31.582Z,101831.02
2019-04-30T17:40:03.763Z,101830.66
2019-04-30T17:42:33.405Z,101831.25
2019-04-30T17:45:04.957Z,101827.55
2019-04-30T17:47:34.714Z,101833.66
2019-04-30T17:50:05.710Z,101835.15
2019-04-30T17:52:36.368Z,101835.69
2019-04-30T17:55:09.717Z,101835.20
2019-04-30T17:57:40.542Z,101835.45
2019-04-30T18:00:18.701Z,101828.72
2019-04-30T18:02:44.360Z,101835.55
2019-04-30T18:05:15.407Z,101839.58
2019-04-30T18:07:44.929Z,101837.81
2019-04-30T18:10:16.170Z,101830.97
2019-04-30T18:12:47.286Z,101829.81
2019-04-30T18:15:22.194Z,101836.60
2019-04-30T18:18:01.388Z,101834.95
2019-04-30T18:20:40.727Z,101832.73
2019-04-30T18:23:42.881Z,101837.13
2019-04-30T18:26:14.412Z,101843.78
2019-04-30T18:28:44.098Z,101836.06
2019-04-30T18:31:13.642Z,101837.59
2019-04-30T18:33:43.333Z,101840.59
2019-04-30T18:36:12.860Z,101839.47
2019-04-30T18:38:42.363Z,101841.02
2019-04-30T18:41:14.836Z,101845.09
2019-04-30T18:43:45.357Z,101842.59
2019-04-30T18:46:15.061Z,101842.21
2019-04-30T18:48:44.561Z,101848.44
2019-04-30T18:51:30.310Z,101840.65
2019-04-30T18:53:49.389Z,101839.41
2019-04-30T18:56:19.250Z,101837.87
2019-04-30T18:58:48.787Z,101841.70
2019-04-30T19:01:19.324Z,101844.64
2019-04-30T19:03:50.030Z,101847.90
2019-04-30T19:06:26.110Z,101849.81
2019-04-30T19:09:15.518Z,101846.86
2019-04-30T19:11:50.872Z,101845.78
2019-04-30T19:14:31.128Z,101845.77
2019-04-30T19:17:20.775Z,101848.80
2019-04-30T19:20:01.752Z,101847.43
2019-04-30T19:22:32.474Z,101852.34
2019-04-30T19:25:04.464Z,101851.78
2019-04-30T19:27:35.551Z,101851.31
2019-04-30T19:30:06.255Z,101849.80
2019-04-30T19:32:39.059Z,101852.77
2019-04-30T19:35:09.743Z,101848.78
2019-04-30T19:37:40.384Z,101854.95
2019-04-30T19:40:10.217Z,101857.59
2019-04-30T19:42:39.859Z,101857.16
2019-04-30T19:45:12.426Z,101853.70
2019-04-30T19:47:42.145Z,101860.48
2019-04-30T19:50:14.200Z,101864.98
2019-04-30T19:52:43.988Z,101868.95
2019-04-30T19:55:14.841Z,101865.77
2019-04-30T19:57:45.785Z,101860.61
2019-04-30T20:00:15.622Z,101864.07
2019-04-30T20:02:48.696Z,101863.89
2019-04-30T20:05:19.425Z,101859.05
2019-04-30T20:07:49.414Z,101860.23
2019-04-30T20:10:19.581Z,101866.28
2019-04-30T20:12:49.697Z,101872.06
2019-04-30T20:15:22.194Z,101867.73
2019-04-30T20:17:51.805Z,101864.59
2019-04-30T20:20:22.433Z,101865.50
2019-04-30T20:22:53.181Z,101866.47
2019-04-30T20:25:22.727Z,101863.87
2019-04-30T20:27:52.828Z,101859.25
2019-04-30T20:30:23.305Z,101861.70
2019-04-30T20:32:54.024Z,101868.33
2019-04-30T20:35:24.006Z,101866.12
2019-04-30T20:38:12.825Z,101872.02
2019-04-30T20:40:57.753Z,101868.77
2019-04-30T20:43:18.534Z,101868.55
2019-04-30T20:45:49.461Z,101866.58
2019-04-30T20:48:22.183Z,101871.23
2019-04-30T20:50:54.834Z,101867.83
2019-04-30T20:53:24.447Z,101868.95
2019-04-30T20:55:55.225Z,101861.10
2019-04-30T20:58:26.636Z,101858.72
2019-04-30T21:01:03.379Z,101859.25
2019-04-30T21:03:29.586Z,101857.30
2019-04-30T21:06:00.587Z,101859.19
2019-04-30T21:08:32.372Z,101856.92
2019-04-30T21:11:03.190Z,101856.52
2019-04-30T21:13:32.815Z,101854.93
2019-04-30T21:16:02.401Z,101853.39
2019-04-30T21:18:32.625Z,101854.70
2019-04-30T21:21:02.122Z,101851.47
2019-04-30T21:23:32.137Z,101851.26
2019-04-30T21:26:04.404Z,101851.25
2019-04-30T21:28:34.043Z,101843.45
2019-04-30T21:31:22.361Z,101843.07
2019-04-30T21:33:58.258Z,101831.19
2019-04-30T21:36:29.080Z,101836.45
2019-04-30T21:38:59.687Z,101830.16
2019-04-30T21:41:29.779Z,101836.77
2019-04-30T21:44:01.594Z,101833.53
2019-04-30T21:46:31.077Z,101828.27
2019-04-30T21:49:01.690Z,101825.69
2019-04-30T21:51:31.397Z,101832.30
2019-04-30T21:54:01.046Z,101827.73
2019-04-30T21:56:31.687Z,101823.25
2019-04-30T21:59:01.274Z,101826.87
2019-04-30T22:01:32.653Z,101819.62
2019-04-30T22:04:02.163Z,101820.89
2019-04-30T22:06:32.841Z,101821.52
2019-04-30T22:09:03.594Z,101817.52
2019-04-30T22:11:33.233Z,101827.09
2019-04-30T22:14:05.205Z,101824.02
2019-04-30T22:16:36.671Z,101827.40
2019-04-30T22:19:08.124Z,101829.78
2019-04-30T22:21:40.431Z,101821.36
2019-04-30T22:24:09.894Z,101821.28
2019-04-30T22:26:40.035Z,101808.85
2019-04-30T22:29:09.747Z,101814.95
2019-04-30T22:31:39.686Z,101818.50
2019-04-30T22:34:09.317Z,101814.25
2019-04-30T22:36:44.103Z,101808.14
2019-04-30T22:39:33.416Z,101809.31
2019-04-30T22:42:30.132Z,101797.67
2019-04-30T22:45:01.809Z,101805.55
2019-04-30T22:47:34.029Z,101800.19
2019-04-30T22:50:05.200Z,101804.13
2019-04-30T22:52:36.509Z,101802.41
2019-04-30T22:55:07.497Z,101802.86
2019-04-30T22:57:37.188Z,101799.02
2019-04-30T23:00:10.133Z,101798.72
2019-04-30T23:02:47.872Z,101799.34
2019-04-30T23:05:18.689Z,101788.79
2019-04-30T23:07:49.996Z,101798.70
2019-04-30T23:10:23.797Z,101793.30
2019-04-30T23:12:54.415Z,101793.35
2019-04-30T23:15:24.534Z,101789.77
2019-04-30T23:17:54.156Z,101786.76
2019-04-30T23:20:23.766Z,101781.74
2019-04-30T23:22:54.368Z,101780.48
2019-04-30T23:25:25.051Z,101782.28
2019-04-30T23:27:55.106Z,101773.87
2019-04-30T23:30:25.640Z,101774.50
2019-04-30T23:32:56.480Z,101774.64
2019-04-30T23:35:28.446Z,101777.49
2019-04-30T23:37:58.248Z,101771.65
2019-04-30T23:40:35.184Z,101768.43
2019-04-30T23:43:04.840Z,101764.75
2019-04-30T23:45:34.399Z,101762.14
2019-04-30T23:48:03.951Z,101762.22
2019-04-30T23:50:34.509Z,101761.45
2019-04-30T23:53:04.029Z,101754.14
2019-04-30T23:55:34.854Z,101749.34
2019-04-30T23:58:04.662Z,101750.51
